createdAt,value
2023-04-04T00:02:13.036Z,0.32
2023-04-04T00:04:43.747Z,0.18
2023-04-04T00:07:14.750Z,0.02
2023-04-04T00:09:45.555Z,-0.04
2023-04-04T00:12:16.555Z,0.04
2023-04-04T00:14:47.572Z,0.19
2023-04-04T00:17:18.798Z,0.06
2023-04-04T00:19:49.299Z,0.05
2023-04-04T00:22:19.867Z,0.07
2023-04-04T00:24:51.663Z,0.01
2023-04-04T00:27:22.260Z,-0.08
2023-04-04T00:29:52.790Z,-0.04
2023-04-04T00:32:24.231Z,-0.24
2023-04-04T00:34:56.149Z,-0.30
2023-04-04T00:37:27.880Z,-0.27
2023-04-04T00:39:58.387Z,-0.34
2023-04-04T00:42:29.068Z,-0.26
2023-04-04T00:44:59.627Z,-0.13
2023-04-04T00:47:31.892Z,-0.20
2023-04-04T00:50:02.752Z,-0.08
2023-04-04T00:52:33.293Z,-0.10
2023-04-04T00:55:04.349Z,-0.12
2023-04-04T00:57:35.834Z,0.00
2023-04-04T01:00:09.426Z,-0.10
2023-04-04T01:02:40.312Z,-0.22
2023-04-04T01:05:11.426Z,-0.32
2023-04-04T01:07:43.665Z,-0.50
2023-04-04T01:10:16.447Z,-0.46
2023-04-04T01:12:47.499Z,-0.33
2023-04-04T01:15:19.682Z,-0.29
2023-04-04T01:17:55.401Z,-0.40
2023-04-04T01:20:34.983Z,-0.40
2023-04-04T01:23:06.946Z,-0.40
2023-04-04T01:25:37.515Z,-0.38
2023-04-04T01:28:08.217Z,-0.54
2023-04-04T01:30:42.188Z,-0.48
2023-04-04T01:33:16.096Z,-0.38
2023-04-04T01:35:55.549Z,-0.34
2023-04-04T01:38:38.610Z,-0.53
2023-04-04T01:41:12.057Z,-0.31
2023-04-04T01:43:47.329Z,-0.46
2023-04-04T01:46:19.335Z,-0.50
2023-04-04T01:48:50.192Z,-0.36
2023-04-04T01:51:21.780Z,-0.16
2023-04-04T01:53:52.567Z,-0.46
2023-04-04T01:56:24.887Z,-0.32
2023-04-04T01:58:55.491Z,-0.47
2023-04-04T02:01:26.320Z,-0.52
2023-04-04T02:03:56.792Z,-0.52
2023-04-04T02:06:27.689Z,-0.46
2023-04-04T02:08:58.375Z,-0.42
2023-04-04T02:11:28.767Z,-0.56
2023-04-04T02:14:00.991Z,-0.60
2023-04-04T02:16:31.544Z,-0.72
2023-04-04T02:19:02.140Z,-0.72
2023-04-04T02:21:32.762Z,-0.73
2023-04-04T02:24:03.401Z,-0.80
2023-04-04T02:26:34.359Z,-0.79
2023-04-04T02:29:05.756Z,-0.76
2023-04-04T02:31:36.540Z,-0.68
2023-04-04T02:34:07.960Z,-0.75
2023-04-04T02:36:38.700Z,-0.68
2023-04-04T02:39:09.639Z,-0.76
2023-04-04T02:41:41.553Z,-0.70
2023-04-04T02:44:12.274Z,-0.76
2023-04-04T02:46:42.993Z,-0.70
2023-04-04T02:49:13.496Z,-0.78
2023-04-04T02:51:44.163Z,-0.85
2023-04-04T02:54:14.783Z,-0.78
2023-04-04T02:56:45.453Z,-0.78
2023-04-04T02:59:16.796Z,-0.92
2023-04-04T03:01:48.425Z,-0.71
2023-04-04T03:04:20.741Z,-0.98
2023-04-04T03:06:52.423Z,-1.03
2023-04-04T03:09:22.969Z,-1.06
2023-04-04T03:11:53.951Z,-1.13
2023-04-04T03:14:26.517Z,-1.12
2023-04-04T03:16:58.746Z,-1.01
2023-04-04T03:19:32.708Z,-0.97
2023-04-04T03:22:03.354Z,-1.00
2023-04-04T03:27:17.371Z,-1.03
2023-04-04T03:29:48.927Z,-1.02
2023-04-04T03:32:21.105Z,-1.16
2023-04-04T03:34:53.507Z,-1.20
2023-04-04T03:37:24.279Z,-1.19
2023-04-04T03:39:54.843Z,-1.14
2023-04-04T03:42:26.755Z,-1.10
2023-04-04T03:44:57.219Z,-1.04
2023-04-04T03:47:28.110Z,-1.08
2023-04-04T03:49:58.767Z,-1.16
2023-04-04T03:52:30.388Z,-1.20
2023-04-04T03:55:02.426Z,-1.28
2023-04-04T03:57:33.319Z,-1.36
2023-04-04T04:00:05.371Z,-1.28
2023-04-04T04:02:35.974Z,-1.39
2023-04-04T04:05:07.763Z,-1.36
2023-04-04T04:07:38.198Z,-1.26
2023-04-04T04:10:09.439Z,-1.22
2023-04-04T04:12:40.009Z,-1.26
2023-04-04T04:15:11.794Z,-1.34
2023-04-04T04:17:43.990Z,-1.18
2023-04-04T04:20:14.803Z,-1.34
2023-04-04T04:22:50.212Z,-1.42
2023-04-04T04:25:21.531Z,-1.18
2023-04-04T04:27:52.465Z,-1.12
2023-04-04T04:30:24.443Z,-1.28
2023-04-04T04:33:00.266Z,-1.24
2023-04-04T04:35:31.704Z,-1.32
2023-04-04T04:38:02.575Z,-1.34
2023-04-04T04:40:35.228Z,-1.24
2023-04-04T04:43:07.364Z,-1.22
2023-04-04T04:45:40.180Z,-1.16
2023-04-04T04:48:11.140Z,-1.22
2023-04-04T04:50:42.003Z,-1.27
2023-04-04T04:53:12.781Z,-1.16
2023-04-04T04:55:43.921Z,-1.22
2023-04-04T04:58:16.092Z,-1.41
2023-04-04T05:00:46.938Z,-1.40
2023-04-04T05:03:17.669Z,-1.34
2023-04-04T05:05:48.581Z,-1.20
2023-04-04T05:08:20.736Z,-0.98
2023-04-04T05:10:53.280Z,-0.94
2023-04-04T05:13:23.915Z,-0.94
2023-04-04T05:15:54.609Z,-0.85
2023-04-04T05:18:27.582Z,0.58
2023-04-04T05:20:58.328Z,2.38
2023-04-04T05:23:29.006Z,3.54
2023-04-04T05:25:59.694Z,5.68
2023-04-04T05:28:30.430Z,6.90
2023-04-04T05:31:01.220Z,7.26
2023-04-04T05:33:31.844Z,8.44
2023-04-04T05:36:03.373Z,9.18
2023-04-04T05:38:34.154Z,9.92
2023-04-04T05:41:04.961Z,10.42
2023-04-04T05:43:35.683Z,9.06
2023-04-04T05:46:06.447Z,10.16
2023-04-04T05:48:37.150Z,8.58
2023-04-04T05:51:07.687Z,9.44
2023-04-04T05:53:38.257Z,10.20
2023-04-04T05:56:08.960Z,10.34
2023-04-04T05:58:39.915Z,10.23
2023-04-04T06:01:13.007Z,9.76
2023-04-04T06:03:43.590Z,10.46
2023-04-04T06:06:14.625Z,10.60
2023-04-04T06:08:53.387Z,11.86
2023-04-04T06:11:18.490Z,11.37
2023-04-04T06:13:49.123Z,7.46
2023-04-04T06:16:24.542Z,4.98
2023-04-04T06:18:55.419Z,4.01
2023-04-04T06:21:26.763Z,3.62
2023-04-04T06:23:57.768Z,2.42
2023-04-04T06:26:30.236Z,2.19
2023-04-04T06:29:00.773Z,1.88
2023-04-04T06:31:31.554Z,1.92
2023-04-04T06:34:02.112Z,1.52
2023-04-04T06:36:33.166Z,1.52
2023-04-04T06:39:05.338Z,1.32
2023-04-04T06:41:37.671Z,1.10
2023-04-04T06:44:08.576Z,0.84
2023-04-04T06:46:40.310Z,0.93
2023-04-04T06:49:12.166Z,1.00
2023-04-04T06:51:44.518Z,1.22
2023-04-04T06:54:18.168Z,1.17
2023-04-04T06:56:51.539Z,1.24
2023-04-04T06:59:24.404Z,1.34
2023-04-04T07:01:56.937Z,1.30
2023-04-04T07:04:28.747Z,1.40
2023-04-04T07:07:00.885Z,1.34
2023-04-04T07:09:31.446Z,1.38
2023-04-04T07:12:03.782Z,1.50
2023-04-04T07:14:35.517Z,1.74
2023-04-04T07:17:17.112Z,1.73
2023-04-04T07:19:38.883Z,2.03
2023-04-04T07:22:09.566Z,2.08
2023-04-04T07:24:41.251Z,2.02
2023-04-04T07:27:13.490Z,1.94
2023-04-04T07:29:44.038Z,1.86
2023-04-04T07:32:16.041Z,1.95
2023-04-04T07:34:47.430Z,2.02
2023-04-04T07:37:19.880Z,1.88
2023-04-04T07:39:50.657Z,2.06
2023-04-04T07:42:25.632Z,2.10
2023-04-04T07:44:56.424Z,2.22
2023-04-04T07:47:27.729Z,2.28
2023-04-04T07:49:58.994Z,2.44
2023-04-04T07:52:29.885Z,2.58
2023-04-04T07:55:02.258Z,2.60
2023-04-04T07:57:33.146Z,2.56
2023-04-04T08:00:05.308Z,2.86
2023-04-04T08:02:39.877Z,2.84
2023-04-04T08:05:11.864Z,2.96
2023-04-04T08:07:42.787Z,2.96
2023-04-04T08:10:13.454Z,3.09
2023-04-04T08:12:48.000Z,2.92
2023-04-04T08:15:19.128Z,3.16
2023-04-04T08:17:50.297Z,2.74
2023-04-04T08:20:21.773Z,2.80
2023-04-04T08:22:52.546Z,2.98
2023-04-04T08:25:23.131Z,3.00
2023-04-04T08:27:53.688Z,3.22
2023-04-04T08:30:24.531Z,3.15
2023-04-04T08:32:55.170Z,3.01
2023-04-04T08:35:26.854Z,3.14
2023-04-04T08:37:58.967Z,3.46
2023-04-04T08:40:33.261Z,3.61
2023-04-04T08:43:06.279Z,3.74
2023-04-04T08:45:38.004Z,3.38
2023-04-04T08:48:13.223Z,3.77
2023-04-04T08:50:45.288Z,3.94
2023-04-04T08:53:17.143Z,4.30
2023-04-04T08:55:48.742Z,4.36
2023-04-04T08:58:19.578Z,4.24
2023-04-04T09:00:53.236Z,4.12
2023-04-04T09:03:29.924Z,3.92
2023-04-04T09:06:02.111Z,4.10
2023-04-04T09:08:32.820Z,4.38
2023-04-04T09:11:04.514Z,4.90
2023-04-04T09:13:37.980Z,5.30
2023-04-04T09:16:09.097Z,4.88
2023-04-04T09:18:40.469Z,4.64
2023-04-04T09:21:13.063Z,4.66
2023-04-04T09:23:44.753Z,4.65
2023-04-04T09:26:17.099Z,4.75
2023-04-04T09:28:52.217Z,5.00
2023-04-04T09:31:24.401Z,4.90
2023-04-04T09:33:55.037Z,5.50
2023-04-04T09:36:27.111Z,5.38
2023-04-04T09:38:58.312Z,5.76
2023-04-04T09:41:30.305Z,5.60
2023-04-04T09:44:02.152Z,5.70
2023-04-04T09:46:32.981Z,5.14
2023-04-04T09:49:04.840Z,5.47
2023-04-04T09:51:37.036Z,5.99
2023-04-04T09:54:15.642Z,5.88
2023-04-04T09:56:44.302Z,5.66
2023-04-04T09:59:18.088Z,5.77
2023-04-04T10:01:52.873Z,5.85
2023-04-04T10:04:27.353Z,6.41
2023-04-04T10:06:59.396Z,6.12
2023-04-04T10:09:30.134Z,6.17
2023-04-04T10:12:11.149Z,6.60
2023-04-04T10:14:41.984Z,7.40
2023-04-04T10:17:17.876Z,7.28
2023-04-04T10:19:55.017Z,7.04
2023-04-04T10:22:26.100Z,7.09
2023-04-04T10:25:00.488Z,6.53
2023-04-04T10:27:33.715Z,5.64
2023-04-04T10:30:05.177Z,5.64
2023-04-04T10:32:51.590Z,5.97
2023-04-04T10:35:26.252Z,5.86
2023-04-04T10:38:02.981Z,5.48
2023-04-04T10:40:40.078Z,5.74
2023-04-04T10:43:13.880Z,6.19
2023-04-04T10:45:46.595Z,6.22
2023-04-04T10:48:17.898Z,6.71
2023-04-04T10:50:52.563Z,6.48
2023-04-04T10:53:23.965Z,6.44
2023-04-04T10:55:57.686Z,6.27
2023-04-04T10:58:29.547Z,6.70
2023-04-04T11:01:00.895Z,6.64
2023-04-04T11:03:34.297Z,7.06
2023-04-04T11:06:09.825Z,7.24
2023-04-04T11:08:42.976Z,7.27
2023-04-04T11:11:22.523Z,7.18
2023-04-04T11:13:48.878Z,7.14
2023-04-04T11:16:21.206Z,7.04
2023-04-04T11:18:52.857Z,6.77
2023-04-04T11:21:25.799Z,6.86
2023-04-04T11:24:06.760Z,6.78
2023-04-04T11:26:40.416Z,6.21
2023-04-04T11:29:12.920Z,6.60
2023-04-04T11:31:50.740Z,6.68
2023-04-04T11:34:35.586Z,6.93
2023-04-04T11:37:18.916Z,7.78
2023-04-04T11:39:57.606Z,7.57
2023-04-04T11:42:36.833Z,7.54
2023-04-04T11:45:10.283Z,6.80
2023-04-04T11:47:42.337Z,6.76
2023-04-04T11:50:16.025Z,6.71
2023-04-04T11:52:46.745Z,6.50
2023-04-04T11:55:19.714Z,6.78
2023-04-04T11:57:52.677Z,7.58
2023-04-04T12:00:35.825Z,7.28
2023-04-04T12:03:11.498Z,7.10
2023-04-04T12:05:44.751Z,7.46
2023-04-04T12:08:16.249Z,7.20
2023-04-04T12:10:46.798Z,7.15
2023-04-04T12:13:17.920Z,6.97
2023-04-04T12:15:50.590Z,6.52
2023-04-04T12:18:24.090Z,6.54
2023-04-04T12:20:56.682Z,6.88
2023-04-04T12:23:29.010Z,7.10
2023-04-04T12:25:59.588Z,6.74
2023-04-04T12:28:33.232Z,6.74
2023-04-04T12:31:08.001Z,6.88
2023-04-04T12:33:39.841Z,7.24
2023-04-04T12:36:12.324Z,7.06
2023-04-04T12:39:08.800Z,6.99
2023-04-04T12:41:54.506Z,6.93
2023-04-04T12:44:30.830Z,6.71
2023-04-04T12:47:04.805Z,7.10
2023-04-04T12:49:44.227Z,7.37
2023-04-04T12:52:22.753Z,7.58
2023-04-04T12:55:06.892Z,7.46
2023-04-04T12:57:30.073Z,7.37
2023-04-04T13:00:04.404Z,7.07
2023-04-04T13:02:37.032Z,6.99
2023-04-04T13:05:11.143Z,7.47
2023-04-04T13:07:44.983Z,7.50
2023-04-04T13:10:18.188Z,7.99
2023-04-04T13:13:02.140Z,8.06
2023-04-04T13:15:52.875Z,7.91
2023-04-04T13:18:25.482Z,8.66
2023-04-04T13:20:57.524Z,8.50
2023-04-04T13:23:28.064Z,8.88
2023-04-04T13:26:00.377Z,8.90
2023-04-04T13:28:31.342Z,9.11
2023-04-04T13:31:06.829Z,9.02
2023-04-04T13:33:37.964Z,8.66
2023-04-04T13:36:11.574Z,7.92
2023-04-04T13:38:43.437Z,7.80
2023-04-04T13:41:14.231Z,8.07
2023-04-04T13:43:44.890Z,7.88
2023-04-04T13:46:15.901Z,7.84
2023-04-04T13:48:49.247Z,8.11
2023-04-04T13:51:22.760Z,8.03
2023-04-04T13:53:53.813Z,8.28
2023-04-04T13:56:24.496Z,8.61
2023-04-04T13:58:55.355Z,8.16
2023-04-04T14:01:26.324Z,7.83
2023-04-04T14:04:00.673Z,7.82
2023-04-04T14:06:32.604Z,7.47
2023-04-04T14:09:06.229Z,7.27
2023-04-04T14:11:36.850Z,6.80
2023-04-04T14:14:07.380Z,6.59
2023-04-04T14:16:37.980Z,6.30
2023-04-04T14:19:08.953Z,6.42
2023-04-04T14:21:39.831Z,6.54
2023-04-04T14:24:10.730Z,6.56
2023-04-04T14:26:43.158Z,6.82
2023-04-04T14:29:14.773Z,7.27
2023-04-04T14:31:49.213Z,7.72
2023-04-04T14:34:19.759Z,8.12
2023-04-04T14:36:52.149Z,8.09
2023-04-04T14:39:22.921Z,8.42
2023-04-04T14:41:56.465Z,8.10
2023-04-04T14:44:29.149Z,8.17
2023-04-04T14:47:00.283Z,8.50
2023-04-04T14:49:32.171Z,8.10
2023-04-04T14:52:02.982Z,8.13
2023-04-04T14:54:33.872Z,8.04
2023-04-04T14:57:07.307Z,8.10
2023-04-04T14:59:40.180Z,8.14
2023-04-04T15:02:09.844Z,8.34
2023-04-04T15:04:41.978Z,8.48
2023-04-04T15:07:15.674Z,8.23
2023-04-04T15:09:50.685Z,8.56
2023-04-04T15:12:21.811Z,8.85
2023-04-04T15:14:53.296Z,8.56
2023-04-04T15:17:26.112Z,8.33
2023-04-04T15:19:56.934Z,8.00
2023-04-04T15:22:27.708Z,7.84
2023-04-04T15:24:59.199Z,7.60
2023-04-04T15:27:29.832Z,7.64
2023-04-04T15:30:00.455Z,7.62
2023-04-04T15:32:31.364Z,7.60
2023-04-04T15:35:03.503Z,7.43
2023-04-04T15:37:36.533Z,7.60
2023-04-04T15:40:12.534Z,7.65
2023-04-04T15:42:45.625Z,7.62
2023-04-04T15:45:19.129Z,7.56
2023-04-04T15:47:49.822Z,7.45
2023-04-04T15:50:20.548Z,7.72
2023-04-04T15:52:51.280Z,7.38
2023-04-04T15:55:22.240Z,7.22
2023-04-04T15:57:53.493Z,7.24
2023-04-04T16:00:24.456Z,7.32
2023-04-04T16:03:02.073Z,7.22
2023-04-04T16:05:31.538Z,7.02
2023-04-04T16:08:03.791Z,6.81
2023-04-04T16:10:37.632Z,6.64
2023-04-04T16:13:08.204Z,6.52
2023-04-04T16:15:39.008Z,6.51
2023-04-04T16:18:09.910Z,6.41
2023-04-04T16:20:41.687Z,6.50
2023-04-04T16:23:13.839Z,6.48
2023-04-04T16:25:44.839Z,6.66
2023-04-04T16:28:17.428Z,6.50
2023-04-04T16:30:50.825Z,6.56
2023-04-04T16:33:26.053Z,6.62
2023-04-04T16:35:56.663Z,6.56
2023-04-04T16:38:27.138Z,6.34
2023-04-04T16:41:01.580Z,6.38
2023-04-04T16:43:32.169Z,6.44
2023-04-04T16:46:06.279Z,6.36
2023-04-04T16:48:36.781Z,6.32
2023-04-04T16:51:07.272Z,6.30
2023-04-04T16:53:37.904Z,6.36
2023-04-04T16:56:08.466Z,6.26
2023-04-04T16:58:39.948Z,6.43
2023-04-04T17:01:12.137Z,6.40
2023-04-04T17:03:42.880Z,6.32
2023-04-04T17:06:14.739Z,6.38
2023-04-04T17:08:46.635Z,6.30
2023-04-04T17:11:19.037Z,6.26
2023-04-04T17:13:52.876Z,6.26
2023-04-04T17:16:23.780Z,6.26
2023-04-04T17:18:55.102Z,6.18
2023-04-04T17:21:29.047Z,6.10
2023-04-04T17:24:01.250Z,6.10
2023-04-04T17:26:32.897Z,6.08
2023-04-04T17:29:06.010Z,5.97
2023-04-04T17:31:36.742Z,5.88
2023-04-04T17:34:07.675Z,5.88
2023-04-04T17:36:40.050Z,5.84
2023-04-04T17:39:10.890Z,5.88
2023-04-04T17:41:41.835Z,6.00
2023-04-04T17:44:12.923Z,6.00
2023-04-04T17:46:43.579Z,6.02
2023-04-04T17:49:20.643Z,5.81
2023-04-04T17:51:52.165Z,5.88
2023-04-04T17:54:23.254Z,5.67
2023-04-04T17:56:55.450Z,5.61
2023-04-04T17:59:26.516Z,5.60
2023-04-04T18:01:57.549Z,5.48
2023-04-04T18:04:28.432Z,5.55
2023-04-04T18:06:59.188Z,5.48
2023-04-04T18:09:32.027Z,5.52
2023-04-04T18:12:03.147Z,5.46
2023-04-04T18:14:33.824Z,5.56
2023-04-04T18:17:05.398Z,5.48
2023-04-04T18:19:36.342Z,5.44
2023-04-04T18:22:07.868Z,5.46
2023-04-04T18:24:38.583Z,5.48
2023-04-04T18:27:10.402Z,5.34
2023-04-04T18:29:43.870Z,5.38
2023-04-04T18:32:15.120Z,5.39
2023-04-04T18:34:47.932Z,5.32
2023-04-04T18:37:18.684Z,5.32
2023-04-04T18:39:49.677Z,5.27
2023-04-04T18:42:21.142Z,5.23
2023-04-04T18:44:53.781Z,5.24
2023-04-04T18:47:24.354Z,5.29
2023-04-04T18:49:57.079Z,5.20
2023-04-04T18:52:27.750Z,5.14
2023-04-04T18:54:58.891Z,5.14
2023-04-04T18:57:29.424Z,5.06
2023-04-04T19:00:01.133Z,5.08
2023-04-04T19:02:33.598Z,4.98
2023-04-04T19:05:07.134Z,5.05
2023-04-04T19:07:38.846Z,4.90
2023-04-04T19:10:10.418Z,4.90
2023-04-04T19:12:41.001Z,4.94
2023-04-04T19:15:13.707Z,4.82
2023-04-04T19:17:44.227Z,4.72
2023-04-04T19:20:14.694Z,4.62
2023-04-04T19:22:45.214Z,4.52
2023-04-04T19:25:16.584Z,4.54
2023-04-04T19:27:47.074Z,4.44
2023-04-04T19:30:46.695Z,4.41
2023-04-04T19:33:20.101Z,4.39
2023-04-04T19:35:59.702Z,4.41
2023-04-04T19:38:39.817Z,4.44
2023-04-04T19:41:22.903Z,4.37
2023-04-04T19:43:53.511Z,4.45
2023-04-04T19:46:26.949Z,4.36
2023-04-04T19:49:05.657Z,4.38
2023-04-04T19:51:43.100Z,4.30
2023-04-04T19:54:18.102Z,4.30
2023-04-04T19:56:51.559Z,4.20
2023-04-04T19:59:43.176Z,4.15
2023-04-04T20:02:36.779Z,4.04
2023-04-04T20:05:27.225Z,4.08
2023-04-04T20:08:01.594Z,4.16
2023-04-04T20:10:42.768Z,4.18
2023-04-04T20:13:15.054Z,4.14
2023-04-04T20:15:49.722Z,4.12
2023-04-04T20:18:28.390Z,4.08
2023-04-04T20:21:03.254Z,4.06
2023-04-04T20:23:46.825Z,3.88
2023-04-04T20:26:43.716Z,3.97
2023-04-04T20:29:18.819Z,4.03
2023-04-04T20:31:55.154Z,3.91
2023-04-04T20:34:46.827Z,3.84
2023-04-04T20:37:23.383Z,3.76
2023-04-04T20:39:55.743Z,3.62
2023-04-04T20:42:35.251Z,3.58
2023-04-04T20:45:15.476Z,3.66
2023-04-04T20:47:57.528Z,3.70
2023-04-04T20:50:34.270Z,3.62
2023-04-04T20:53:06.866Z,3.67
2023-04-04T20:55:38.853Z,3.60
2023-04-04T20:58:12.275Z,3.56
2023-04-04T21:00:43.771Z,3.34
2023-04-04T21:03:34.189Z,3.48
2023-04-04T21:06:13.844Z,3.22
2023-04-04T21:08:50.454Z,3.24
2023-04-04T21:11:30.456Z,3.18
2023-04-04T21:14:01.069Z,3.12
2023-04-04T21:16:31.759Z,3.08
2023-04-04T21:19:03.162Z,3.11
2023-04-04T21:21:33.759Z,3.14
2023-04-04T21:24:07.586Z,3.10
2023-04-04T21:26:42.906Z,3.20
2023-04-04T21:29:22.303Z,3.11
2023-04-04T21:31:55.082Z,3.20
2023-04-04T21:34:28.258Z,2.98
2023-04-04T21:37:01.965Z,3.12
2023-04-04T21:39:32.559Z,3.07
2023-04-04T21:42:07.944Z,3.05
2023-04-04T21:44:38.404Z,3.06
2023-04-04T21:47:10.347Z,2.96
2023-04-04T21:49:41.493Z,2.82
2023-04-04T21:52:12.112Z,2.86
2023-04-04T21:54:44.271Z,2.76
2023-04-04T21:57:15.094Z,2.78
2023-04-04T21:59:45.615Z,2.80
2023-04-04T22:02:16.594Z,2.68
2023-04-04T22:04:49.517Z,2.60
2023-04-04T22:07:20.164Z,2.58
2023-04-04T22:09:57.504Z,2.72
2023-04-04T22:12:29.314Z,2.79
2023-04-04T22:15:01.128Z,2.70
2023-04-04T22:17:35.337Z,2.62
2023-04-04T22:20:09.565Z,2.64
2023-04-04T22:22:41.877Z,2.66
2023-04-04T22:25:13.636Z,2.56
2023-04-04T22:27:46.897Z,2.68
2023-04-04T22:30:18.410Z,2.48
2023-04-04T22:32:48.875Z,2.34
2023-04-04T22:35:20.738Z,2.20
2023-04-04T22:37:51.456Z,2.31
2023-04-04T22:40:22.442Z,2.18
2023-04-04T22:42:53.072Z,2.14
2023-04-04T22:45:28.650Z,2.13
2023-04-04T22:48:03.501Z,2.02
2023-04-04T22:50:35.676Z,2.02
2023-04-04T22:53:06.196Z,2.10
2023-04-04T22:55:36.746Z,2.08
2023-04-04T22:58:09.156Z,2.12
2023-04-04T23:00:41.460Z,2.11
2023-04-04T23:03:12.213Z,2.04
2023-04-04T23:05:42.818Z,1.88
2023-04-04T23:08:15.189Z,1.84
2023-04-04T23:10:45.636Z,1.94
2023-04-04T23:13:16.251Z,2.02
2023-04-04T23:15:46.710Z,1.99
2023-04-04T23:18:17.658Z,1.90
2023-04-04T23:20:48.210Z,1.90
2023-04-04T23:23:18.712Z,1.80
2023-04-04T23:25:53.082Z,1.80
2023-04-04T23:28:23.473Z,1.66
2023-04-04T23:30:54.699Z,1.74
2023-04-04T23:33:25.327Z,1.72
2023-04-04T23:35:56.206Z,1.56
2023-04-04T23:38:26.772Z,1.50
2023-04-04T23:40:58.915Z,1.46
2023-04-04T23:43:29.775Z,1.42
2023-04-04T23:46:02.282Z,1.59
2023-04-04T23:48:34.680Z,1.64
2023-04-04T23:51:06.106Z,1.49
2023-04-04T23:53:37.042Z,1.52
2023-04-04T23:56:08.364Z,1.42
2023-04-04T23:58:39.203Z,1.48
